Time;durP1;ratioP1;P1;durP2;ratioP2;P2;SDS_P1;SDS_P2;PMS_P1;PMS_P2;Temp;Humidity;BMP_temperature;BMP_pressure;BME280_temperature;BME280_humidity;BME280_pressure;Samples;Min_cycle;Max_cycle;Signal;HPM_P1;HPM_P2
2022/12/27 00:01:59;;;;;;;13.10;5.17;;;;;;;2.19;100.00;102038.03;4839038;29;20124;-88
2022/12/27 00:04:26;;;;;;;11.57;5.00;;;;;;;2.23;100.00;102038.59;4847867;29;20120;-88
2022/12/27 00:06:51;;;;;;;12.53;5.37;;;;;;;2.23;100.00;102036.81;4831302;29;20063;-88
2022/12/27 00:09:17;;;;;;;11.47;5.50;;;;;;;2.23;100.00;102042.16;4816658;29;20034;-88
2022/12/27 00:11:42;;;;;;;14.73;5.60;;;;;;;2.26;100.00;102038.34;4834590;29;20494;-88
2022/12/27 00:14:09;;;;;;;16.93;5.33;;;;;;;2.26;100.00;102044.56;4840009;29;20037;-88
2022/12/27 00:16:35;;;;;;;10.07;5.23;;;;;;;2.27;100.00;102048.94;4838032;29;20029;-88
2022/12/27 00:19:00;;;;;;;12.93;5.37;;;;;;;2.32;100.00;102048.53;4836646;29;20085;-88
2022/12/27 00:21:26;;;;;;;13.93;6.17;;;;;;;2.33;100.00;102053.75;4854085;29;20040;-88
2022/12/27 00:23:54;;;;;;;16.47;5.87;;;;;;;2.38;100.00;102049.84;4834451;29;20048;-88
2022/12/27 00:26:23;;;;;;;12.57;5.07;;;;;;;2.29;100.00;102057.66;4838500;29;20493;-88
2022/12/27 00:28:49;;;;;;;14.37;5.83;;;;;;;2.34;100.00;102057.31;4835120;29;20109;-88
2022/12/27 00:31:15;;;;;;;13.30;5.77;;;;;;;2.36;100.00;102063.34;4834994;29;20037;-87
2022/12/27 00:33:43;;;;;;;14.60;5.53;;;;;;;2.37;100.00;102059.72;4840652;29;20151;-88
2022/12/27 00:36:12;;;;;;;13.77;5.43;;;;;;;2.31;100.00;102061.09;4833475;29;20417;-87
2022/12/27 00:38:38;;;;;;;11.90;5.50;;;;;;;2.31;100.00;102057.53;4851644;29;20049;-88
2022/12/27 00:41:04;;;;;;;12.57;5.57;;;;;;;2.41;100.00;102054.94;4848856;29;20037;-88
2022/12/27 00:43:30;;;;;;;11.77;5.87;;;;;;;2.40;100.00;102054.09;4835405;29;20090;-88
2022/12/27 00:45:56;;;;;;;14.90;6.73;;;;;;;2.36;100.00;102064.19;4837382;29;20033;-88
2022/12/27 00:48:22;;;;;;;15.27;5.50;;;;;;;2.34;100.00;102065.34;4840662;29;20387;-88
2022/12/27 00:50:47;;;;;;;12.60;5.80;;;;;;;2.37;100.00;102070.41;4839691;29;20064;-88
2022/12/27 00:53:13;;;;;;;17.63;6.63;;;;;;;2.36;100.00;102066.88;4850310;29;20116;-89
2022/12/27 00:55:42;;;;;;;16.27;5.70;;;;;;;2.39;100.00;102072.97;4847416;29;20029;-89
2022/12/27 00:58:07;;;;;;;12.87;5.50;;;;;;;2.41;100.00;102071.84;4835807;29;20026;-90
2022/12/27 01:00:33;;;;;;;14.63;5.57;;;;;;;2.47;100.00;102076.69;4851884;29;20032;-89
2022/12/27 01:02:58;;;;;;;15.63;6.00;;;;;;;2.44;100.00;102084.97;4829812;29;20030;-89
2022/12/27 01:05:24;;;;;;;13.30;5.33;;;;;;;2.47;100.00;102082.03;4832205;29;20089;-89
2022/12/27 01:07:49;;;;;;;14.63;5.33;;;;;;;2.42;100.00;102083.41;4836153;29;20117;-89
2022/12/27 01:10:14;;;;;;;12.63;5.53;;;;;;;2.43;100.00;102085.94;4833424;29;20037;-89
2022/12/27 01:12:40;;;;;;;13.27;5.77;;;;;;;2.41;100.00;102077.22;4852113;29;20037;-89
2022/12/27 01:15:08;;;;;;;13.47;5.33;;;;;;;2.42;100.00;102096.78;4853605;29;20033;-89
2022/12/27 01:17:34;;;;;;;12.57;4.93;;;;;;;2.41;100.00;102093.25;4834050;29;20108;-89
2022/12/27 01:20:00;;;;;;;12.17;5.57;;;;;;;2.38;100.00;102082.81;4851038;29;20129;-89
2022/12/27 01:22:25;;;;;;;13.57;5.17;;;;;;;2.48;100.00;102083.72;4839130;29;20044;-89
2022/12/27 01:24:50;;;;;;;15.77;5.23;;;;;;;2.49;100.00;102088.13;4837733;29;20112;-88
2022/12/27 01:27:16;;;;;;;13.70;5.33;;;;;;;2.52;100.00;102085.19;4834760;29;20490;-89
2022/12/27 01:29:41;;;;;;;10.80;5.17;;;;;;;2.50;100.00;102102.34;4834926;29;20113;-89
2022/12/27 01:32:08;;;;;;;14.97;5.13;;;;;;;2.51;100.00;102096.84;4839256;29;20123;-89
2022/12/27 01:34:33;;;;;;;14.37;5.50;;;;;;;2.45;100.00;102100.06;4841815;29;20029;-89
2022/12/27 01:36:59;;;;;;;13.47;5.20;;;;;;;2.53;100.00;102107.44;4855064;29;20037;-89
2022/12/27 01:39:24;;;;;;;15.53;5.10;;;;;;;2.48;100.00;102115.84;4844605;29;20046;-89
2022/12/27 01:44:41;;;;;;;15.02;5.10;;;;;;;2.47;100.00;102124.84;4856001;29;20129;-89
2022/12/27 01:47:36;;;;;;;15.07;6.20;;;;;;;2.48;100.00;102125.69;4842871;29;20029;-89
2022/12/27 01:50:13;;;;;;;14.95;5.15;;;;;;;2.50;100.00;102126.41;4836730;29;20033;-89
2022/12/27 01:53:19;;;;;;;20.03;6.40;;;;;;;2.56;100.00;102125.03;4853311;29;20052;-88
2022/12/27 01:55:50;;;;;;;13.02;5.40;;;;;;;2.48;100.00;102125.69;4844726;29;20045;-88
2022/12/27 01:58:36;;;;;;;17.43;5.53;;;;;;;2.53;100.00;102126.19;4842336;29;21785;-88
2022/12/27 02:01:03;;;;;;;14.73;5.30;;;;;;;2.49;100.00;102127.41;4858039;29;20055;-88
2022/12/27 02:03:49;;;;;;;18.13;5.67;;;;;;;2.43;100.00;102128.75;4841530;29;20466;-88
2022/12/27 02:06:16;;;;;;;12.73;5.40;;;;;;;2.46;100.00;102127.63;4840506;29;20386;-88
2022/12/27 02:09:00;;;;;;;13.57;4.97;;;;;;;2.49;100.00;102135.44;4831871;29;20036;-88
2022/12/27 02:11:52;;;;;;;13.10;5.00;;;;;;;2.48;100.00;102139.91;4839350;29;20489;-88
2022/12/27 02:14:41;;;;;;;16.60;5.60;;;;;;;2.51;100.00;102141.50;4853952;29;20042;-88
2022/12/27 02:17:11;;;;;;;13.63;5.37;;;;;;;2.55;100.00;102136.75;4839956;29;20034;-88
2022/12/27 02:19:39;;;;;;;11.97;4.77;;;;;;;2.58;100.00;102149.88;4838948;29;20504;-88
2022/12/27 02:22:23;;;;;;;14.20;5.40;;;;;;;2.56;100.00;102147.31;4835929;29;20037;-88
2022/12/27 02:25:06;;;;;;;14.63;5.05;;;;;;;2.55;100.00;102147.44;4853588;29;20554;-88
2022/12/27 02:28:06;;;;;;;12.00;4.90;;;;;;;2.63;100.00;102150.34;4851074;29;20037;-88
2022/12/27 02:30:32;;;;;;;15.63;5.23;;;;;;;2.52;100.00;102144.03;4829541;29;20041;-88
2022/12/27 02:33:13;;;;;;;13.83;5.20;;;;;;;2.55;100.00;102142.09;4839748;29;20129;-88
2022/12/27 02:35:43;;;;;;;17.57;5.70;;;;;;;2.52;100.00;102149.38;4832530;29;20041;-88
2022/12/27 02:38:20;;;;;;;16.00;4.60;;;;;;;2.49;100.00;102144.31;4834772;29;20133;-88
2022/12/27 02:53:08;;;;;;;14.30;5.40;;;;;;;2.49;100.00;102171.06;4853047;29;20141;-88
2022/12/27 02:58:41;;;;;;;15.37;5.60;;;;;;;2.45;100.00;102169.59;4797431;29;20084;-88
2022/12/27 03:04:13;;;;;;;16.23;5.07;;;;;;;2.42;100.00;102153.81;4853126;29;20067;-88
2022/12/27 03:07:16;;;;;;;15.43;4.90;;;;;;;2.44;100.00;102146.50;4854820;29;20056;-89
2022/12/27 03:16:04;;;;;;;13.23;4.70;;;;;;;2.41;100.00;102151.25;4857406;29;20052;-89
2022/12/27 03:18:43;;;;;;;12.40;5.10;;;;;;;2.44;100.00;102148.34;4841415;29;20091;-89
2022/12/27 03:26:46;;;;;;;12.60;4.57;;;;;;;2.53;100.00;102166.31;4849131;29;20125;-89
2022/12/27 03:34:52;;;;;;;13.97;5.00;;;;;;;2.51;100.00;102179.78;4852569;29;20049;-89
2022/12/27 03:40:28;;;;;;;12.67;4.50;;;;;;;2.57;100.00;102177.59;4852569;29;20053;-89
2022/12/27 03:43:12;;;;;;;15.10;5.40;;;;;;;2.52;100.00;102175.31;4839929;29;20029;-89
2022/12/27 03:48:47;;;;;;;14.03;4.83;;;;;;;2.46;100.00;102183.81;4855490;29;20053;-89
2022/12/27 03:51:15;;;;;;;13.40;4.70;;;;;;;2.53;100.00;102179.69;4835130;29;20128;-90
2022/12/27 03:53:45;;;;;;;13.60;4.67;;;;;;;2.65;100.00;102175.13;4841628;29;20037;-90
2022/12/27 03:56:11;;;;;;;16.47;5.00;;;;;;;2.68;100.00;102175.75;4840025;29;20053;-89
2022/12/27 03:58:36;;;;;;;13.00;5.10;;;;;;;2.70;100.00;102180.97;4836661;29;20039;-89
2022/12/27 04:01:01;;;;;;;15.33;5.13;;;;;;;2.68;100.00;102174.91;4839548;29;20038;-89
2022/12/27 04:03:27;;;;;;;15.80;5.20;;;;;;;2.68;100.00;102182.94;4846096;29;20045;-89
2022/12/27 04:05:53;;;;;;;15.10;5.33;;;;;;;2.67;100.00;102182.06;4854072;29;20558;-89
2022/12/27 04:35:38;;;;;;;14.97;4.83;;;;;;;2.71;100.00;102188.00;4833478;29;20732;-88
2022/12/27 04:38:03;;;;;;;12.93;5.03;;;;;;;2.66;100.00;102204.44;4848306;29;20051;-88
2022/12/27 04:57:00;;;;;;;15.30;5.10;;;;;;;2.66;100.00;102225.00;4851705;29;20048;-88
2022/12/27 05:02:10;;;;;;;14.80;5.30;;;;;;;2.66;100.00;102211.63;4843740;29;20065;-88
2022/12/27 05:04:37;;;;;;;12.40;4.83;;;;;;;2.64;100.00;102221.63;4828537;29;20030;-88
2022/12/27 05:15:18;;;;;;;14.73;4.97;;;;;;;2.72;100.00;102208.47;4843924;29;20040;-89
2022/12/27 05:17:43;;;;;;;14.00;5.17;;;;;;;2.68;100.00;102217.72;4832197;29;20025;-89
2022/12/27 05:20:09;;;;;;;14.80;5.50;;;;;;;2.66;100.00;102215.13;4846816;29;20368;-88
2022/12/27 05:25:34;;;;;;;15.27;4.70;;;;;;;2.65;100.00;102226.84;4851277;29;20051;-89
2022/12/27 05:28:00;;;;;;;14.70;5.23;;;;;;;2.67;100.00;102232.06;4834404;29;20029;-89
2022/12/27 05:30:26;;;;;;;11.87;4.40;;;;;;;2.69;100.00;102230.09;4838547;29;20049;-89
2022/12/27 05:32:55;;;;;;;13.23;4.87;;;;;;;2.65;100.00;102239.34;4833516;29;20067;-89
2022/12/27 05:35:21;;;;;;;12.97;4.93;;;;;;;2.61;100.00;102243.25;4828899;29;20117;-89
2022/12/27 05:37:46;;;;;;;14.63;4.97;;;;;;;2.66;100.00;102251.78;4851856;29;21034;-89
2022/12/27 05:40:12;;;;;;;15.90;4.93;;;;;;;2.67;100.00;102254.31;4833437;29;20110;-90
2022/12/27 05:42:37;;;;;;;15.73;5.30;;;;;;;2.73;100.00;102252.97;4836486;29;20037;-89
2022/12/27 05:45:03;;;;;;;13.33;4.47;;;;;;;2.73;100.00;102258.31;4828961;29;20026;-89
2022/12/27 05:47:28;;;;;;;16.37;4.43;;;;;;;2.75;100.00;102259.06;4834939;29;20060;-89
2022/12/27 05:49:54;;;;;;;14.93;4.70;;;;;;;2.76;100.00;102260.75;4852203;29;22035;-89
2022/12/27 05:52:19;;;;;;;14.90;4.33;;;;;;;2.75;100.00;102259.06;4836703;29;20069;-89
2022/12/27 05:54:45;;;;;;;13.97;4.77;;;;;;;2.72;100.00;102264.66;4826437;29;20032;-89
2022/12/27 05:57:10;;;;;;;15.67;4.50;;;;;;;2.71;100.00;102260.28;4843391;29;21955;-89
2022/12/27 05:59:35;;;;;;;11.03;4.00;;;;;;;2.78;100.00;102266.81;4835015;29;20037;-88
2022/12/27 06:02:01;;;;;;;10.00;4.20;;;;;;;2.83;100.00;102261.94;4823896;29;20033;-88
2022/12/27 06:04:27;;;;;;;15.63;4.30;;;;;;;2.84;100.00;102266.34;4833985;29;20041;-88
2022/12/27 06:06:52;;;;;;;14.37;4.87;;;;;;;2.87;100.00;102266.06;4828995;29;20097;-88
2022/12/27 06:09:17;;;;;;;17.57;5.63;;;;;;;2.92;100.00;102263.00;4850367;29;20056;-88
2022/12/27 06:11:43;;;;;;;13.30;4.67;;;;;;;3.00;100.00;102270.41;4829332;29;20041;-88
2022/12/27 06:14:08;;;;;;;17.60;5.60;;;;;;;3.06;100.00;102269.06;4824394;29;20177;-88
2022/12/27 06:16:34;;;;;;;19.17;6.37;;;;;;;3.08;100.00;102257.25;4833033;29;20030;-88
2022/12/27 06:18:59;;;;;;;13.50;5.00;;;;;;;3.13;100.00;102271.09;4838720;29;20162;-87
2022/12/27 06:21:25;;;;;;;16.60;5.70;;;;;;;3.15;100.00;102274.50;4856303;29;20033;-87
2022/12/27 06:23:50;;;;;;;15.20;5.70;;;;;;;3.16;100.00;102276.19;4832515;29;20029;-88
2022/12/27 06:26:18;;;;;;;14.83;6.00;;;;;;;3.11;100.00;102278.41;4835346;29;21009;-88
2022/12/27 06:28:44;;;;;;;14.57;5.93;;;;;;;3.14;100.00;102277.28;4851617;29;20030;-88
2022/12/27 06:31:10;;;;;;;13.10;6.37;;;;;;;3.08;100.00;102284.03;4835850;29;20040;-88
2022/12/27 06:33:35;;;;;;;20.63;9.83;;;;;;;3.06;100.00;102280.63;4842218;29;20041;-88
2022/12/27 06:36:09;;;;;;;16.73;8.17;;;;;;;3.00;100.00;102273.09;4837118;29;20061;-88
2022/12/27 06:38:35;;;;;;;16.85;10.63;;;;;;;2.93;100.00;102274.59;4834452;29;20210;-88
2022/12/27 06:41:02;;;;;;;17.77;10.47;;;;;;;2.78;100.00;102274.84;4856509;29;20041;-88
2022/12/27 06:43:27;;;;;;;17.53;8.67;;;;;;;2.83;100.00;102272.66;4839648;29;20037;-88
2022/12/27 06:46:01;;;;;;;16.93;8.77;;;;;;;2.72;100.00;102277.19;4853458;29;20130;-88
2022/12/27 06:48:27;;;;;;;17.27;7.70;;;;;;;2.64;100.00;102273.31;4841433;29;20026;-88
2022/12/27 06:50:52;;;;;;;16.80;7.97;;;;;;;2.60;100.00;102279.88;4854612;29;20030;-88
2022/12/27 06:53:18;;;;;;;18.70;7.70;;;;;;;2.55;100.00;102287.44;4854389;29;20037;-88
2022/12/27 06:55:43;;;;;;;17.73;7.40;;;;;;;2.49;100.00;102296.81;4824871;29;20029;-88
2022/12/27 06:58:09;;;;;;;17.60;7.07;;;;;;;2.45;100.00;102298.03;4852135;29;20029;-88
2022/12/27 07:00:35;;;;;;;13.07;6.50;;;;;;;2.46;100.00;102298.84;4834744;29;20053;-88
2022/12/27 07:03:02;;;;;;;17.97;7.10;;;;;;;2.40;100.00;102304.72;4838257;29;21116;-88
2022/12/27 07:05:28;;;;;;;17.53;7.13;;;;;;;2.35;100.00;102297.91;4852276;29;22040;-88
2022/12/27 07:07:53;;;;;;;17.60;6.37;;;;;;;2.26;100.00;102292.41;4850245;29;20034;-88
2022/12/27 07:10:19;;;;;;;15.90;6.60;;;;;;;2.28;100.00;102291.31;4836079;29;21089;-88
2022/12/27 07:12:44;;;;;;;13.73;5.70;;;;;;;2.24;100.00;102289.03;4832389;29;20033;-88
2022/12/27 07:15:09;;;;;;;14.00;5.80;;;;;;;2.19;100.00;102292.06;4832429;29;20479;-88
2022/12/27 07:17:35;;;;;;;15.97;5.90;;;;;;;2.12;100.00;102289.03;4837162;29;20038;-88
2022/12/27 07:20:03;;;;;;;15.60;5.93;;;;;;;2.14;100.00;102304.94;4837528;29;20025;-88
2022/12/27 07:22:29;;;;;;;13.43;5.50;;;;;;;2.16;100.00;102306.53;4836564;29;20582;-88
2022/12/27 07:24:54;;;;;;;20.73;6.10;;;;;;;2.10;100.00;102303.50;4834902;29;20184;-88
2022/12/27 07:27:19;;;;;;;16.90;6.27;;;;;;;2.08;100.00;102314.31;4837581;29;20040;-88
2022/12/27 07:29:45;;;;;;;20.27;5.73;;;;;;;2.06;100.00;102313.56;4853363;29;20505;-88
2022/12/27 07:32:10;;;;;;;20.40;6.23;;;;;;;2.02;100.00;102322.78;4841283;29;20119;-88
2022/12/27 07:34:36;;;;;;;18.00;6.17;;;;;;;2.01;100.00;102323.75;4836584;29;20034;-88
2022/12/27 07:37:01;;;;;;;13.27;5.43;;;;;;;2.01;100.00;102327.31;4838887;29;20021;-88
2022/12/27 07:39:27;;;;;;;16.47;6.10;;;;;;;1.96;100.00;102337.50;4851685;29;20053;-88
2022/12/27 07:41:52;;;;;;;17.97;6.00;;;;;;;1.91;100.00;102328.13;4835386;29;20174;-88
2022/12/27 07:44:17;;;;;;;16.50;5.80;;;;;;;1.93;100.00;102323.50;4851865;29;20521;-88
2022/12/27 07:46:44;;;;;;;17.33;5.80;;;;;;;1.92;100.00;102325.34;4834774;29;20026;-88
2022/12/27 07:49:10;;;;;;;16.20;6.00;;;;;;;1.95;100.00;102334.94;4836544;29;20028;-88
2022/12/27 07:51:36;;;;;;;19.27;6.90;;;;;;;1.89;100.00;102336.28;4853449;29;20042;-88
2022/12/27 07:54:02;;;;;;;16.93;6.20;;;;;;;1.93;100.00;102339.53;4856271;29;20053;-88
2022/12/27 07:56:28;;;;;;;15.13;5.77;;;;;;;1.90;100.00;102332.59;4835790;29;20058;-88
2022/12/27 07:58:56;;;;;;;16.70;6.47;;;;;;;1.90;100.00;102334.44;4835681;29;20569;-88
2022/12/27 08:01:23;;;;;;;18.67;6.73;;;;;;;1.91;100.00;102331.66;4830483;29;20085;-88
2022/12/27 08:03:48;;;;;;;15.90;6.47;;;;;;;1.90;100.00;102337.13;4835101;29;20036;-88
2022/12/27 08:06:19;;;;;;;15.03;6.77;;;;;;;1.95;100.00;102332.28;4848302;29;20869;-88
2022/12/27 08:08:45;;;;;;;17.30;6.97;;;;;;;1.97;100.00;102341.00;4838370;29;20119;-88
2022/12/27 08:11:10;;;;;;;16.97;7.00;;;;;;;2.00;100.00;102346.13;4833371;29;20550;-89
2022/12/27 08:13:36;;;;;;;18.13;6.93;;;;;;;1.98;100.00;102348.06;4852818;29;20534;-88
2022/12/27 08:16:02;;;;;;;20.00;7.17;;;;;;;2.02;100.00;102354.88;4836359;29;20165;-88
2022/12/27 08:18:27;;;;;;;19.13;6.73;;;;;;;2.06;100.00;102358.19;4853854;29;20025;-88
2022/12/27 08:20:53;;;;;;;15.17;6.67;;;;;;;2.10;100.00;102371.19;4838032;29;20025;-88
2022/12/27 08:23:18;;;;;;;16.17;6.97;;;;;;;2.15;100.00;102369.00;4842872;29;20092;-88
2022/12/27 08:25:44;;;;;;;13.17;6.20;;;;;;;2.21;100.00;102369.50;4853170;29;20508;-88
2022/12/27 08:28:13;;;;;;;15.73;6.63;;;;;;;2.27;100.00;102361.00;4835743;29;20033;-88
2022/12/27 08:30:41;;;;;;;19.37;7.20;;;;;;;2.35;100.00;102354.09;4836412;29;20029;-89
2022/12/27 08:33:06;;;;;;;14.63;6.77;;;;;;;2.41;100.00;102360.78;4852361;29;20026;-88
2022/12/27 08:35:32;;;;;;;14.90;6.60;;;;;;;2.51;100.00;102361.72;4853044;29;20030;-88
2022/12/27 08:38:00;;;;;;;16.50;6.37;;;;;;;2.58;100.00;102371.97;4835432;29;20118;-89
2022/12/27 08:40:25;;;;;;;15.23;7.10;;;;;;;2.69;100.00;102370.16;4848010;29;20029;-88
2022/12/27 08:42:51;;;;;;;14.53;7.10;;;;;;;2.77;100.00;102360.63;4834607;29;20030;-88
2022/12/27 08:45:16;;;;;;;16.57;6.50;;;;;;;2.78;100.00;102359.66;4854238;29;20021;-88
2022/12/27 08:47:41;;;;;;;15.63;6.60;;;;;;;2.81;100.00;102359.41;4833762;29;20497;-89
2022/12/27 08:50:07;;;;;;;12.87;6.50;;;;;;;2.84;100.00;102360.03;4850468;29;20092;-89
2022/12/27 08:52:35;;;;;;;14.40;6.57;;;;;;;2.91;100.00;102352.34;4850199;29;20037;-88
2022/12/27 08:55:02;;;;;;;14.47;6.53;;;;;;;2.93;100.00;102350.38;4840133;29;20064;-88
2022/12/27 08:57:27;;;;;;;14.80;6.53;;;;;;;3.01;100.00;102358.66;4831308;29;20628;-89
2022/12/27 08:59:53;;;;;;;14.13;6.67;;;;;;;3.06;100.00;102347.59;4834925;29;20030;-89
2022/12/27 09:02:19;;;;;;;12.27;6.30;;;;;;;3.13;100.00;102351.44;4847513;29;20103;-89
2022/12/27 09:04:44;;;;;;;13.73;6.13;;;;;;;3.23;100.00;102350.69;4838062;29;20026;-88
2022/12/27 09:07:09;;;;;;;15.73;5.90;;;;;;;3.28;100.00;102348.47;4834503;29;20069;-88
2022/12/27 09:09:35;;;;;;;15.13;6.47;;;;;;;3.35;100.00;102344.31;4853466;29;20018;-89
2022/12/27 09:12:00;;;;;;;14.17;6.10;;;;;;;3.43;100.00;102341.84;4839286;29;20040;-88
2022/12/27 09:14:25;;;;;;;13.97;6.20;;;;;;;3.54;100.00;102343.63;4834783;29;20119;-89
2022/12/27 09:16:51;;;;;;;12.87;5.73;;;;;;;3.62;100.00;102356.38;4838831;29;20484;-89
2022/12/27 09:19:18;;;;;;;13.30;5.80;;;;;;;3.75;100.00;102354.38;4835423;29;20120;-87
2022/12/27 09:21:44;;;;;;;14.50;6.33;;;;;;;3.80;100.00;102359.34;4833484;29;20097;-89
2022/12/27 09:24:11;;;;;;;15.57;5.20;;;;;;;3.93;100.00;102369.88;4847119;29;20030;-90
2022/12/27 09:26:36;;;;;;;11.57;5.30;;;;;;;3.96;100.00;102358.91;4818330;29;20034;-89
2022/12/27 09:29:03;;;;;;;10.03;5.57;;;;;;;4.08;100.00;102373.97;4814861;29;20030;-89
2022/12/27 09:31:28;;;;;;;14.80;6.03;;;;;;;4.16;100.00;102373.28;4835668;29;20068;-88
2022/12/27 09:33:54;;;;;;;12.60;5.50;;;;;;;4.20;100.00;102372.03;4851491;29;20088;-89
2022/12/27 09:36:22;;;;;;;12.20;5.37;;;;;;;4.39;100.00;102376.66;4846999;29;20041;-89
2022/12/27 09:38:48;;;;;;;13.73;5.47;;;;;;;4.29;100.00;102370.41;4851669;29;20042;-88
2022/12/27 09:41:51;;;;;;;11.27;5.17;;;;;;;4.56;100.00;102384.09;4836875;29;20422;-89
2022/12/27 09:44:28;;;;;;;10.13;4.83;;;;;;;4.54;100.00;102387.88;4848035;29;20034;-89
2022/12/27 09:47:05;;;;;;;12.43;5.20;;;;;;;4.71;100.00;102394.47;4835692;29;20455;-89
2022/12/27 09:49:45;;;;;;;13.33;4.83;;;;;;;4.72;100.00;102383.59;4854450;29;20029;-88
2022/12/27 09:52:19;;;;;;;10.87;5.00;;;;;;;4.89;100.00;102379.41;4841746;29;20098;-88
2022/12/27 09:54:51;;;;;;;;;;;;;;;5.38;100.00;102395.63;4834975;29;20025;-89
2022/12/27 09:57:26;;;;;;;11.53;4.60;;;;;;;5.09;100.00;102390.22;4852184;29;20297;-89
2022/12/27 09:59:57;;;;;;;10.27;4.90;;;;;;;5.23;100.00;102375.53;4837848;29;20864;-89
2022/12/27 10:02:26;;;;;;;10.23;4.63;;;;;;;5.51;100.00;102378.41;4836595;29;20049;-89
2022/12/27 10:04:55;;;;;;;13.07;4.97;;;;;;;5.49;100.00;102375.84;4855306;29;20443;-88
2022/12/27 10:07:23;;;;;;;9.47;4.13;;;;;;;5.70;100.00;102399.91;4839021;29;20034;-88
2022/12/27 10:10:02;;;;;;;11.87;4.30;;;;;;;5.82;100.00;102397.94;4839022;29;20449;-89
2022/12/27 10:13:02;;;;;;;11.60;4.60;;;;;;;5.81;100.00;102400.78;4836452;29;20033;-89
2022/12/27 10:15:47;;;;;;;7.90;3.90;;;;;;;5.98;100.00;102391.16;4853504;29;20444;-89
2022/12/27 10:18:17;;;;;;;10.60;3.90;;;;;;;6.08;100.00;102384.78;4839840;29;20041;-88
2022/12/27 10:21:06;;;;;;;9.80;4.03;;;;;;;6.32;100.00;102399.59;4834452;29;20036;-89
2022/12/27 10:23:34;;;;;;;8.53;3.80;;;;;;;6.25;100.00;102390.41;4844154;29;20033;-88
2022/12/27 10:26:04;;;;;;;10.87;4.00;;;;;;;6.37;100.00;102388.41;4853870;29;21833;-88
2022/12/27 10:28:37;;;;;;;10.43;4.20;;;;;;;6.32;100.00;102382.59;4851581;29;20021;-88
2022/12/27 10:31:03;;;;;;;12.27;4.63;;;;;;;6.57;100.00;102376.56;4849659;29;20054;-88
2022/12/27 10:33:31;;;;;;;10.80;3.97;;;;;;;6.70;100.00;102386.16;4838173;29;20205;-88
2022/12/27 10:35:57;;;;;;;6.57;3.40;;;;;;;6.81;100.00;102388.63;4838458;29;20117;-88
2022/12/27 10:38:24;;;;;;;9.03;3.63;;;;;;;7.01;99.62;102393.94;4836212;29;20049;-88
2022/12/27 10:41:09;;;;;;;9.53;3.60;;;;;;;7.18;100.00;102389.59;4839996;29;20033;-88
2022/12/27 10:43:40;;;;;;;11.90;4.00;;;;;;;7.21;97.38;102390.13;4838376;29;20054;-88
2022/12/27 10:46:18;;;;;;;12.07;4.00;;;;;;;7.34;98.78;102391.63;4855788;29;20041;-88
2022/12/27 10:49:00;;;;;;;8.50;3.73;;;;;;;7.46;97.38;102406.56;4824619;29;20415;-88
2022/12/27 10:51:32;;;;;;;10.93;4.47;;;;;;;7.55;97.16;102405.66;4841515;29;20451;-89
2022/12/27 10:54:10;;;;;;;10.10;3.87;;;;;;;7.62;95.70;102407.75;4853336;29;20030;-88
2022/12/27 10:56:40;;;;;;;9.80;3.93;;;;;;;7.64;94.27;102395.78;4834785;29;20663;-88
2022/12/27 10:59:25;;;;;;;9.73;3.47;;;;;;;7.81;94.53;102398.66;4846690;29;20037;-89
2022/12/27 11:02:00;;;;;;;10.17;3.60;;;;;;;7.77;93.31;102398.09;4845540;29;20345;-89
2022/12/27 11:04:27;;;;;;;8.67;3.30;;;;;;;7.28;94.36;102393.06;4826640;29;20041;-88
2022/12/27 11:06:58;;;;;;;8.90;3.80;;;;;;;7.16;94.75;102402.38;4830776;29;20030;-89
2022/12/27 11:09:31;;;;;;;7.63;3.50;;;;;;;6.55;97.68;102383.91;4847455;29;20040;-88
2022/12/27 11:12:20;;;;;;;6.80;3.57;;;;;;;6.61;99.12;102385.19;4832780;29;20033;-88
2022/12/27 11:15:09;;;;;;;11.00;4.03;;;;;;;6.35;99.58;102379.59;4853640;29;20044;-88
2022/12/27 11:17:49;;;;;;;10.73;4.07;;;;;;;6.18;100.00;102370.44;4854116;29;20037;-88
2022/12/27 11:20:18;;;;;;;13.73;4.13;;;;;;;5.98;100.00;102369.63;4835337;29;20403;-88
2022/12/27 11:22:52;;;;;;;11.67;4.50;;;;;;;5.82;100.00;102365.66;4840599;29;20146;-88
2022/12/27 11:25:18;;;;;;;11.27;4.60;;;;;;;5.84;100.00;102368.22;4838030;29;20040;-88
2022/12/27 11:27:50;;;;;;;11.20;4.87;;;;;;;5.64;100.00;102365.50;4833017;29;20018;-88
2022/12/27 11:30:43;;;;;;;10.83;4.40;;;;;;;5.71;100.00;102371.16;4854547;29;20040;-88
2022/12/27 11:33:22;;;;;;;10.83;4.37;;;;;;;5.61;100.00;102371.19;4854411;29;20037;-88
2022/12/27 11:35:53;;;;;;;12.60;4.57;;;;;;;5.44;100.00;102364.69;4840784;29;20402;-88
2022/12/27 11:38:24;;;;;;;10.97;4.40;;;;;;;5.52;100.00;102364.81;4832021;29;20463;-88
2022/12/27 11:41:10;;;;;;;10.40;4.33;;;;;;;5.52;100.00;102367.50;4836726;29;20120;-88
2022/12/27 11:43:50;;;;;;;13.47;4.70;;;;;;;5.50;100.00;102372.16;4840825;29;20033;-88
2022/12/27 11:46:44;;;;;;;9.37;4.60;;;;;;;5.56;100.00;102366.25;4850418;29;20435;-88
2022/12/27 11:49:20;;;;;;;10.47;4.27;;;;;;;5.46;100.00;102360.00;4841795;29;20024;-88
2022/12/27 11:51:55;;;;;;;12.87;4.60;;;;;;;5.47;100.00;102356.31;4853320;29;20112;-88
2022/12/27 11:54:28;;;;;;;10.23;4.20;;;;;;;5.47;100.00;102353.63;4840244;29;20124;-88
2022/12/27 11:57:26;;;;;;;8.80;4.43;;;;;;;5.48;100.00;102351.78;4835195;29;20025;-88
2022/12/27 12:00:02;;;;;;;12.63;5.07;;;;;;;5.37;100.00;102345.56;4848940;29;20037;-88
2022/12/27 12:02:37;;;;;;;14.27;4.67;;;;;;;5.40;100.00;102333.69;4847176;29;20058;-88
2022/12/27 12:05:18;;;;;;;10.67;4.50;;;;;;;5.36;100.00;102340.34;4845116;29;20518;-88
2022/12/27 12:07:55;;;;;;;12.40;5.00;;;;;;;5.35;100.00;102347.53;4845198;29;20044;-88
2022/12/27 12:10:37;;;;;;;12.13;4.97;;;;;;;5.38;100.00;102351.78;4829049;29;20030;-88
2022/12/27 12:13:19;;;;;;;11.30;4.40;;;;;;;5.42;100.00;102329.00;4831567;29;20025;-88
2022/12/27 12:16:06;;;;;;;11.67;4.40;;;;;;;5.41;100.00;102332.69;4851735;29;20026;-88
2022/12/27 12:19:05;;;;;;;10.60;4.67;;;;;;;5.48;100.00;102325.78;4835406;29;20037;-88
2022/12/27 12:21:49;;;;;;;9.57;4.83;;;;;;;5.47;100.00;102325.91;4844521;29;20061;-88
2022/12/27 12:24:38;;;;;;;9.77;4.03;;;;;;;5.55;100.00;102324.19;4836863;29;20044;-88
2022/12/27 12:27:09;;;;;;;10.03;4.30;;;;;;;5.56;100.00;102323.22;4844434;29;20029;-88
2022/12/27 12:29:53;;;;;;;11.60;4.33;;;;;;;5.46;100.00;102330.44;4840797;29;20037;-88
2022/12/27 12:32:25;;;;;;;9.90;4.20;;;;;;;5.47;100.00;102313.31;4838786;29;20046;-88
2022/12/27 12:35:09;;;;;;;11.13;4.00;;;;;;;5.56;100.00;102317.84;4841450;29;20033;-88
2022/12/27 12:37:37;;;;;;;8.50;4.00;;;;;;;5.77;100.00;102324.03;4832615;29;20037;-88
2022/12/27 12:40:27;;;;;;;10.63;4.40;;;;;;;6.14;100.00;102316.06;4853329;29;20049;-88
2022/12/27 12:43:16;;;;;;;6.70;3.73;;;;;;;6.30;100.00;102310.06;4855018;29;20105;-88
2022/12/27 12:46:12;;;;;;;9.70;4.00;;;;;;;6.31;100.00;102310.91;4850115;29;20445;-88
2022/12/27 12:48:41;;;;;;;11.30;4.10;;;;;;;6.39;100.00;102292.16;4835475;29;20117;-88
2022/12/27 12:51:24;;;;;;;11.63;4.20;;;;;;;6.62;100.00;102289.09;4836569;29;20045;-88
2022/12/27 12:53:56;;;;;;;9.43;3.63;;;;;;;6.72;100.00;102288.03;4850411;29;20029;-88
2022/12/27 12:56:30;;;;;;;9.60;3.60;;;;;;;6.78;100.00;102281.19;4848799;29;20121;-87
2022/12/27 12:59:17;;;;;;;10.63;3.50;;;;;;;6.87;100.00;102282.97;4849965;29;20054;-88
2022/12/27 13:01:51;;;;;;;9.10;3.70;;;;;;;7.47;100.00;102276.13;4846284;29;20089;-88
2022/12/27 13:04:41;;;;;;;8.43;3.57;;;;;;;7.61;99.39;102269.31;4847378;29;20037;-88
2022/12/27 13:07:28;;;;;;;10.23;3.57;;;;;;;7.87;97.54;102271.19;4837558;29;20083;-88
2022/12/27 13:10:16;;;;;;;9.50;3.70;;;;;;;8.01;97.39;102275.13;4831786;29;20055;-88
2022/12/27 13:13:15;;;;;;;8.70;3.50;;;;;;;7.88;97.41;102262.91;4835419;29;20041;-88
2022/12/27 13:15:59;;;;;;;10.87;3.77;;;;;;;7.66;96.75;102241.88;4832385;29;20034;-88
2022/12/27 13:18:53;;;;;;;9.13;3.80;;;;;;;7.80;97.24;102256.63;4837004;29;20037;-88
2022/12/27 13:21:30;;;;;;;10.23;3.70;;;;;;;7.58;96.78;102245.34;4814311;29;20494;-88